Iwanui, Waitara Historical Data
Daily Summary for February 15, 2018 Units:  English    Metric   Both
« Previous Day
Next Day »
Daily Weekly Monthly Yearly Custom
  High: Low: Average:
Temperature: 80.1 °F 55.6 °F 68.4 °F
Dew Point: 65.1 °F 54.1 °F 59 °F
Humidity: 98% 51% 75%
Wind Speed: 8.3mph 0mph 2.5mph
Wind Gust: 15.9mph - -
Wind- - West
Pressure: 30 in 29.9 in -
Precipitation: 0 in    
Historical Graphs
 
 
Tabular Data for February 15, 2018
Time Temperature Dew Point Pressure Wind Wind Speed Wind Gust Humidity Rainfall Rate (Hourly)
00:03 59.5 °F 56.8 °F 29.9 in WSW 1.6 mph 2.2 mph 91% 0 in
00:08 59.5 °F 56.8 °F 29.9 in Calm   2.2 mph 91% 0 in
00:13 59.5 °F 57.2 °F 29.9 in Calm   2.2 mph 92% 0 in
00:18 59.5 °F 57.2 °F 29.9 in Calm   1.6 mph 92% 0 in
00:23 59.5 °F 57.2 °F 29.9 in Calm   1.6 mph 92% 0 in
00:28 59.5 °F 57.2 °F 29.9 in Calm   0.7 mph 92% 0 in
00:33 59.5 °F 57.2 °F 29.9 in Calm   0.7 mph 92% 0 in
00:38 59.5 °F 57.2 °F 29.9 in Calm   0.7 mph 92% 0 in
00:43 59.4 °F 57 °F 29.9 in Calm   0.7 mph 92% 0 in
00:49 59.2 °F 56.8 °F 29.9 in Calm   0.7 mph 92% 0 in
00:54 59 °F 56.7 °F 29.9 in Calm     92% 0 in
00:59 59 °F 56.7 °F 29.9 in SW 0.7 mph 2.2 mph 92% 0 in
01:04 58.8 °F 56.8 °F 29.9 in Calm   2.2 mph 93% 0 in
01:09 58.8 °F 56.8 °F 29.9 in Calm   2.2 mph 93% 0 in
01:14 58.6 °F 56.7 °F 29.9 in Calm   0.7 mph 93% 0 in
01:19 58.5 °F 56.5 °F 29.9 in Calm   0.7 mph 93% 0 in
01:24 58.5 °F 56.5 °F 29.9 in Calm   0.7 mph 93% 0 in
01:29 58.3 °F 56.7 °F 29.9 in Calm     94% 0 in
01:34 58.1 °F 56.5 °F 29.9 in Calm     94% 0 in
01:39 57.9 °F 56.1 °F 29.9 in Calm     94% 0 in
01:44 57.7 °F 55.9 °F 29.9 in Calm     94% 0 in
01:49 57.7 °F 55.9 °F 29.9 in Calm     94% 0 in
01:54 57.4 °F 55.8 °F 29.9 in Calm     94% 0 in
01:59 57.2 °F 55.6 °F 29.9 in Calm     94% 0 in
02:04 57 °F 55.6 °F 29.9 in Calm     95% 0 in
02:09 57 °F 55.6 °F 29.9 in Calm     95% 0 in
02:14 56.8 °F 55.4 °F 29.9 in Calm     95% 0 in
02:19 56.5 °F 55 °F 29.9 in Calm     95% 0 in
02:24 56.5 °F 55 °F 29.9 in Calm     95% 0 in
02:29 56.5 °F 55 °F 29.9 in Calm     95% 0 in
02:34 56.3 °F 54.9 °F 29.9 in Calm     95% 0 in
02:39 56.3 °F 54.9 °F 29.9 in Calm   3.1 mph 95% 0 in
02:44 56.3 °F 54.9 °F 29.9 in Calm   3.1 mph 95% 0 in
02:49 55.9 °F 54.5 °F 29.9 in Calm   1.6 mph 95% 0 in
02:54 55.9 °F 54.5 °F 29.9 in Calm     95% 0 in
02:59 55.8 °F 54.3 °F 29.9 in Calm     95% 0 in
03:04 55.8 °F 54.3 °F 29.9 in Calm     95% 0 in
03:09 55.6 °F 54.1 °F 29.9 in Calm     95% 0 in
03:14 55.8 °F 54.3 °F 29.9 in Calm     95% 0 in
03:19 55.9 °F 54.5 °F 29.9 in Calm     95% 0 in
03:24 55.9 °F 54.5 °F 29.9 in Calm     95% 0 in
03:29 55.8 °F 54.3 °F 29.9 in Calm   0.7 mph 95% 0 in
03:34 55.8 °F 54.3 °F 29.9 in Calm   2.2 mph 95% 0 in
03:39 55.8 °F 54.3 °F 29.9 in Calm   2.2 mph 95% 0 in
03:44 55.8 °F 54.3 °F 29.9 in Calm     95% 0 in
03:49 55.6 °F 54.5 °F 29.9 in Calm     96% 0 in
03:54 55.8 °F 54.7 °F 29.9 in Calm   0.7 mph 96% 0 in
03:59 55.8 °F 54.7 °F 29.9 in Calm   0.7 mph 96% 0 in
04:05 55.6 °F 54.5 °F 29.9 in Calm   0.7 mph 96% 0 in
04:10 55.6 °F 54.5 °F 29.9 in Calm   1.6 mph 96% 0 in
04:15 55.8 °F 54.7 °F 29.9 in Calm   1.6 mph 96% 0 in
04:20 55.9 °F 54.9 °F 29.9 in Calm   0.7 mph 96% 0 in
04:25 55.8 °F 54.7 °F 29.9 in Calm   0.7 mph 96% 0 in
04:30 55.9 °F 54.9 °F 29.9 in Calm     96% 0 in
04:35 55.8 °F 54.7 °F 29.9 in Calm     96% 0 in
04:40 55.8 °F 54.7 °F 29.9 in Calm     96% 0 in
04:45 55.8 °F 54.7 °F 29.9 in Calm     96% 0 in
04:50 55.6 °F 54.5 °F 29.9 in Calm     96% 0 in
04:55 55.8 °F 54.7 °F 29.9 in Calm     96% 0 in
05:00 55.8 °F 54.7 °F 29.9 in Calm     96% 0 in
05:05 55.9 °F 54.9 °F 29.9 in Calm     96% 0 in
05:10 55.8 °F 54.7 °F 29.9 in Calm     96% 0 in
05:15 56.1 °F 55 °F 29.9 in South 0.7 mph 3.1 mph 96% 0 in
05:20 56.3 °F 55.6 °F 29.9 in Calm   3.1 mph 97% 0 in
05:25 55.9 °F 55 °F 29.9 in Calm   2.2 mph 97% 0 in
05:30 55.8 °F 54.9 °F 29.9 in Calm   0.7 mph 97% 0 in
05:35 55.6 °F 54.9 °F 29.9 in South 1.6 mph 3.1 mph 97% 0 in
05:40 55.8 °F 54.9 °F 29.9 in South 2.2 mph 3.1 mph 97% 0 in
05:45 56.3 °F 55.6 °F 29.9 in Calm   3.8 mph 97% 0 in
05:50 56.3 °F 55.6 °F 29.9 in South 1.6 mph 3.8 mph 97% 0 in
05:52 56.3 °F 55.6 °F 29.9 in South 1.6 mph 3.8 mph 97% 0 in
05:57 56.3 °F 55.6 °F 29.9 in South 1.6 mph 3.8 mph 97% 0 in
06:02 56.7 °F 55.8 °F 30 in South 1.6 mph 5.4 mph 97% 0 in
06:07 56.7 °F 55.8 °F 30 in SSE 1.6 mph 5.4 mph 97% 0 in
06:12 56.5 °F 55.6 °F 30 in SSE 0.7 mph 3.1 mph 97% 0 in
06:17 56.5 °F 55.6 °F 30 in Calm   3.1 mph 97% 0 in
06:22 56.5 °F 55.6 °F 30 in Calm   3.1 mph 97% 0 in
06:27 56.7 °F 55.8 °F 30 in South 0.7 mph 3.8 mph 97% 0 in
06:32 56.7 °F 55.8 °F 30 in SSE 1.6 mph 3.8 mph 97% 0 in
06:37 56.7 °F 55.8 °F 30 in SE 0.7 mph 3.1 mph 97% 0 in
06:42 56.8 °F 55.9 °F 30 in Calm   3.1 mph 97% 0 in
06:47 56.5 °F 55.6 °F 30 in Calm   3.1 mph 97% 0 in
06:52 56.1 °F 55.2 °F 30 in Calm   1.6 mph 97% 0 in
06:57 55.9 °F 55 °F 30 in Calm   0.7 mph 97% 0 in
07:02 56.1 °F 55.6 °F 30 in Calm   0.7 mph 98% 0 in
07:07 55.8 °F 54.9 °F 30 in Calm   1.6 mph 97% 0 in
07:12 55.8 °F 54.9 °F 30 in Calm   1.6 mph 97% 0 in
07:17 55.6 °F 54.9 °F 30 in Calm     97% 0 in
07:22 55.8 °F 55.2 °F 30 in Calm   1.6 mph 98% 0 in
07:27 55.9 °F 55.4 °F 30 in Calm   1.6 mph 98% 0 in
07:32 56.1 °F 55.6 °F 30 in South 0.7 mph 1.6 mph 98% 0 in
07:37 56.5 °F 55.9 °F 30 in South 0.7 mph 2.2 mph 98% 0 in
07:42 57 °F 56.5 °F 30 in South 0.7 mph 2.2 mph 98% 0 in
07:47 59.4 °F 58.5 °F 30 in Calm   2.2 mph 97% 0 in
07:52 61.9 °F 60.6 °F 30 in SE 0.7 mph 1.6 mph 96% 0 in
07:57 64.2 °F 62.8 °F 30 in Calm   2.2 mph 95% 0 in
08:02 66.9 °F 65.1 °F 30 in Calm   2.2 mph 94% 0 in
08:07 66.4 °F 64 °F 30 in South 1.6 mph 3.1 mph 92% 0 in
08:13 67.1 °F 63.9 °F 30 in Calm   3.1 mph 89% 0 in
08:18 67.6 °F 63 °F 30 in Calm   1.6 mph 85% 0 in
08:23 69.6 °F 63.7 °F 30 in Calm   1.6 mph 81% 0 in
08:28 70.9 °F 62.2 °F 30 in Calm   2.2 mph 74% 0 in
08:33 71.8 °F 61.9 °F 30 in Calm   2.2 mph 71% 0 in
08:38 73.4 °F 63.1 °F 30 in Calm   1.6 mph 70% 0 in
08:43 74.5 °F 63.3 °F 30 in ESE 0.7 mph 1.6 mph 68% 0 in
08:48 75.2 °F 62.2 °F 30 in ESE 1.6 mph 2.2 mph 64% 0 in
08:53 76.1 °F 63.1 °F 30 in Calm   2.2 mph 64% 0 in
08:58 77 °F 62.1 °F 30 in ESE 0.7 mph 2.2 mph 60% 0 in
09:03 76.8 °F 63 °F 30 in Calm   2.2 mph 62% 0 in
09:08 77.7 °F 62.8 °F 30 in Calm   2.2 mph 60% 0 in
09:13 78.4 °F 63 °F 30 in Calm   2.2 mph 59% 0 in
09:18 80.1 °F 63 °F 30 in SW 1.6 mph 3.1 mph 56% 0 in
09:23 79.9 °F 61.9 °F 30 in WSW 2.2 mph 3.8 mph 54% 0 in
09:28 79.9 °F 62.2 °F 30 in West 1.6 mph 3.8 mph 55% 0 in
09:33 79.9 °F 60.3 °F 30 in West 1.6 mph 4.5 mph 51% 0 in
09:38 78.4 °F 60.4 °F 30 in WNW 3.1 mph 4.5 mph 54% 0 in
09:43 78.4 °F 61 °F 30 in WNW 2.2 mph 4.5 mph 55% 0 in
09:48 78.1 °F 60.6 °F 30 in West 3.1 mph 4.5 mph 55% 0 in
09:53 78.1 °F 60.6 °F 30 in West 3.1 mph 5.4 mph 55% 0 in
09:58 78.3 °F 60.8 °F 30 in WSW 1.6 mph 5.4 mph 55% 0 in
10:03 78.3 °F 60.3 °F 30 in WNW 4.5 mph 7.6 mph 54% 0 in
10:08 78.1 °F 59.5 °F 30 in WNW 3.1 mph 7.6 mph 53% 0 in
10:13 77.7 °F 59.7 °F 30 in WSW 2.2 mph 8.3 mph 54% 0 in
10:18 78.3 °F 59.7 °F 30 in WSW 4.5 mph 8.3 mph 53% 0 in
10:23 76.6 °F 58.8 °F 30 in WSW 3.8 mph 7.6 mph 54% 0 in
10:28 76.6 °F 61.3 °F 30 in WSW 3.1 mph 8.3 mph 59% 0 in
10:33 77 °F 60.1 °F 30 in WSW 4.5 mph 8.3 mph 56% 0 in
10:38 77 °F 59.2 °F 30 in West 4.5 mph 9.2 mph 54% 0 in
10:43 76.6 °F 59.4 °F 30 in WNW 6.9 mph 10.7 mph 55% 0 in
10:48 76.8 °F 60.4 °F 30 in NW 3.8 mph 10.7 mph 57% 0 in
10:53 76.5 °F 59.5 °F 30 in West 4.5 mph 9.2 mph 56% 0 in
10:58 75.4 °F 59.5 °F 30 in WSW 2.2 mph 8.3 mph 58% 0 in
11:03 75.7 °F 59.9 °F 30 in WNW 8.3 mph 9.8 mph 58% 0 in
11:08 74.8 °F 60.1 °F 30 in WNW 4.5 mph 9.8 mph 60% 0 in
11:13 75.2 °F 59.9 °F 30 in West 3.8 mph 8.3 mph 59% 0 in
11:19 75.4 °F 61 °F 30 in WNW 3.8 mph 8.3 mph 61% 0 in
11:24 75.7 °F 60.4 °F 30 in WNW 6.9 mph 10.7 mph 59% 0 in
11:29 75.9 °F 61.2 °F 30 in WNW 6 mph 11.4 mph 60% 0 in
11:34 76.3 °F 61.9 °F 30 in WNW 6.9 mph 12.1 mph 61% 0 in
11:39 75.9 °F 60.1 °F 30 in NW 6 mph 12.1 mph 58% 0 in
11:44 76.3 °F 61.3 °F 30 in NW 6.9 mph 12.1 mph 60% 0 in
11:49 77 °F 60.6 °F 30 in NW 7.6 mph 11.4 mph 57% 0 in
11:54 77 °F 61.2 °F 30 in NW 7.6 mph 12.1 mph 58% 0 in
11:59 75.2 °F 59.9 °F 30 in NW 7.6 mph 12.1 mph 59% 0 in
12:04 76.3 °F 60.1 °F 30 in WNW 7.6 mph 12.1 mph 57% 0 in
12:09 76.3 °F 58.5 °F 30 in WSW 6.9 mph 11.4 mph 54% 0 in
12:14 77 °F 60.1 °F 30 in West 5.4 mph 9.8 mph 56% 0 in
12:19 77.4 °F 59.5 °F 30 in West 4.5 mph 9.8 mph 54% 0 in
12:24 77.2 °F 59.7 °F 30 in WNW 5.4 mph 10.7 mph 55% 0 in
12:29 78.1 °F 61.2 °F 30 in WNW 4.5 mph 10.7 mph 56% 0 in
12:34 78.1 °F 61.2 °F 30 in WNW 6 mph 9.2 mph 56% 0 in
12:39 77.9 °F 59.4 °F 30 in NW 6 mph 12.1 mph 53% 0 in
12:44 77.2 °F 59.4 °F 30 in WNW 3.8 mph 12.1 mph 54% 0 in
12:49 77.2 °F 59.4 °F 30 in WNW 5.4 mph 9.8 mph 54% 0 in
12:54 76.6 °F 59.4 °F 30 in NW 4.5 mph 12.1 mph 55% 0 in
12:59 76.8 °F 60.1 °F 30 in NW 5.4 mph 12.1 mph 56% 0 in
13:04 77 °F 58.6 °F 30 in WNW 4.5 mph 9.2 mph 53% 0 in
13:09 76.8 °F 60.1 °F 30 in NW 6.9 mph 12.1 mph 56% 0 in
13:14 77 °F 60.1 °F 30 in NW 5.4 mph 12.1 mph 56% 0 in
13:19 76.6 °F 59.7 °F 30 in WNW 8.3 mph 10.7 mph 56% 0 in
13:24 76.8 °F 60.4 °F 30 in NW 8.3 mph 15.9 mph 57% 0 in
13:30 76.3 °F 60.4 °F 30 in NW 5.4 mph 15.9 mph 58% 0 in
13:35 77.2 °F 59.4 °F 30 in WNW 8.3 mph 13 mph 54% 0 in
13:40 77.2 °F 60.3 °F 30 in WNW 4.5 mph 13 mph 56% 0 in
13:45 77.9 °F 60.4 °F 30 in WNW 3.1 mph 13 mph 55% 0 in
13:50 77.7 °F 59.7 °F 30 in WNW 7.6 mph 13.6 mph 54% 0 in
13:55 77.7 °F 60.3 °F 30 in WNW 4.5 mph 13.6 mph 55% 0 in
14:00 78.1 °F 61.2 °F 30 in WNW 5.4 mph 13.6 mph 56% 0 in
14:05 78.1 °F 59.5 °F 30 in WNW 6 mph 13 mph 53% 0 in
14:10 77.2 °F 59.7 °F 30 in WNW 5.4 mph 13 mph 55% 0 in
14:15 77.9 °F 60.1 °F 30 in WNW 4.5 mph 12.1 mph 54% 0 in
14:20 77.9 °F 61 °F 30 in NW 5.4 mph 10.7 mph 56% 0 in
14:25 78.1 °F 60.1 °F 30 in NW 6 mph 11.4 mph 54% 0 in
14:30 78.1 °F 61.2 °F 30 in NW 5.4 mph 11.4 mph 56% 0 in
14:35 77.9 °F 58.8 °F 30 in WNW 6 mph 9.8 mph 52% 0 in
14:40 77.7 °F 60.3 °F 30 in NW 5.4 mph 9.8 mph 55% 0 in
14:45 77.7 °F 59.7 °F 30 in NW 5.4 mph 10.7 mph 54% 0 in
14:50 77 °F 59.2 °F 30 in WNW 5.4 mph 10.7 mph 54% 0 in
14:55 77.5 °F 60.1 °F 30 in NW 5.4 mph 9.8 mph 55% 0 in
15:00 78.1 °F 60.1 °F 30 in NW 6.9 mph 10.7 mph 54% 0 in
15:05 77.4 °F 60.4 °F 30 in NW 4.5 mph 10.7 mph 56% 0 in
15:10 77.4 °F 60.4 °F 30 in NW 8.3 mph 10.7 mph 56% 0 in
15:15 77.4 °F 61 °F 30 in NNW 5.4 mph 10.7 mph 57% 0 in
15:21 77.2 °F 60.3 °F 30 in NW 8.3 mph 12.1 mph 56% 0 in
15:26 77.4 °F 61 °F 30 in NW 4.5 mph 12.1 mph 57% 0 in
15:31 77.4 °F 59.5 °F 30 in NW 6 mph 12.1 mph 54% 0 in
15:36 77.5 °F 60.1 °F 30 in NW 6 mph 12.1 mph 55% 0 in
15:41 76.8 °F 61 °F 30 in NW 6.9 mph 12.1 mph 58% 0 in
15:46 77.5 °F 60.6 °F 30 in NW 5.4 mph 12.1 mph 56% 0 in
15:51 77.9 °F 60.4 °F 30 in NW 3.8 mph 11.4 mph 55% 0 in
15:56 78.1 °F 60.6 °F 30 in NW 6 mph 11.4 mph 55% 0 in
16:01 78.1 °F 60.6 °F 30 in WNW 7.6 mph 11.4 mph 55% 0 in
16:06 78.1 °F 60.6 °F 30 in WNW 7.6 mph 10.7 mph 55% 0 in
16:11 78.1 °F 60.1 °F 30 in West 5.4 mph 10.7 mph 54% 0 in
16:16 78.3 °F 59.7 °F 30 in West 5.4 mph 13 mph 53% 0 in
16:24 78.3 °F 60.8 °F 30 in West 7.6 mph 13 mph 55% 0 in
16:29 78.1 °F 60.1 °F 30 in WNW 4.5 mph 12.1 mph 54% 0 in
16:34 78.1 °F 60.1 °F 30 in West 4.5 mph 12.1 mph 54% 0 in
16:39 78.1 °F 60.6 °F 30 in West 3.8 mph 11.4 mph 55% 0 in
16:44 78.1 °F 61.2 °F 30 in WNW 3.8 mph 10.7 mph 56% 0 in
16:49 78.1 °F 61.2 °F 30 in WNW 3.8 mph 11.4 mph 56% 0 in
16:54 78.1 °F 61.2 °F 30 in WNW 5.4 mph 14.5 mph 56% 0 in
16:59 78.1 °F 61.5 °F 30 in WSW 6.9 mph 14.5 mph 57% 0 in
17:04 77.9 °F 60.4 °F 30 in WSW 4.5 mph 12.1 mph 55% 0 in
17:09 77.9 °F 61.5 °F 30 in West 6 mph 12.1 mph 57% 0 in
17:14 77.9 °F 62.1 °F 30 in West 6.9 mph 12.1 mph 58% 0 in
17:19 77.7 °F 60.8 °F 30 in West 5.4 mph 10.7 mph 56% 0 in
17:24 78.1 °F 62.1 °F 30 in West 8.3 mph 10.7 mph 58% 0 in
17:29 78.1 °F 61.2 °F 30 in West 5.4 mph 10.7 mph 56% 0 in
17:34 78.1 °F 60.6 °F 30 in WSW 6.9 mph 11.4 mph 55% 0 in
17:39 77.9 °F 61 °F 30 in WSW 4.5 mph 11.4 mph 56% 0 in
17:44 78.1 °F 60.6 °F 30 in West 5.4 mph 11.4 mph 55% 0 in
17:49 77.9 °F 61 °F 30 in West 3.1 mph 9.8 mph 56% 0 in
17:54 78.1 °F 61.2 °F 30 in West 5.4 mph 9.8 mph 56% 0 in
17:59 78.1 °F 60.6 °F 30 in West 3.8 mph 8.3 mph 55% 0 in
18:04 77.7 °F 61.3 °F 30 in West 4.5 mph 9.2 mph 57% 0 in
18:09 77.4 °F 60.4 °F 30 in WNW 3.1 mph 11.4 mph 56% 0 in
18:14 77.2 °F 60.3 °F 30 in WNW 3.1 mph 11.4 mph 56% 0 in
18:19 77.4 °F 61 °F 30 in West 6.9 mph 9.8 mph 57% 0 in
18:24 77.2 °F 61.3 °F 30 in West 5.4 mph 10.7 mph 58% 0 in
18:29 76.8 °F 61.3 °F 30 in West 5.4 mph 10.7 mph 59% 0 in
18:34 76.3 °F 61.9 °F 30 in WNW 5.4 mph 10.7 mph 61% 0 in
18:39 76.3 °F 61.9 °F 30 in WNW 6 mph 11.4 mph 61% 0 in
18:44 75.9 °F 62.1 °F 30 in WNW 5.4 mph 11.4 mph 62% 0 in
18:49 76.8 °F 62.4 °F 30 in WNW 3.1 mph 9.2 mph 61% 0 in
18:54 76.8 °F 61.9 °F 30 in West 5.4 mph 7.6 mph 60% 0 in
18:59 76.3 °F 61.9 °F 30 in WSW 3.8 mph 10.7 mph 61% 0 in
19:04 75.9 °F 61.5 °F 30 in West 3.1 mph 10.7 mph 61% 0 in
19:09 75.9 °F 61.5 °F 30 in West 6.9 mph 10.7 mph 61% 0 in
19:14 75.4 °F 61.5 °F 30 in West 4.5 mph 10.7 mph 62% 0 in
19:19 75.2 °F 61.9 °F 30 in West 3.1 mph 9.2 mph 63% 0 in
19:24 73.9 °F 61 °F 30 in West 3.8 mph 8.3 mph 64% 0 in
19:30 73.4 °F 61.3 °F 30 in WNW 3.8 mph 8.3 mph 66% 0 in
19:35 73.4 °F 61.9 °F 30 in WNW 3.1 mph 8.3 mph 67% 0 in
19:40 73.6 °F 62.1 °F 30 in WNW 3.1 mph 7.6 mph 67% 0 in
19:45 73.8 °F 61.7 °F 30 in West 6 mph 9.2 mph 66% 0 in
19:50 73 °F 61 °F 30 in West 3.8 mph 9.2 mph 66% 0 in
19:55 72.3 °F 61.2 °F 30 in West 3.1 mph 8.3 mph 68% 0 in
20:00 71.4 °F 60.6 °F 30 in WNW 4.5 mph 6.9 mph 69% 0 in
20:05 70.5 °F 60.3 °F 30 in WNW 4.5 mph 6.9 mph 70% 0 in
20:10 69.8 °F 60.1 °F 30 in West 3.1 mph 6.9 mph 71% 0 in
20:15 69.1 °F 60.1 °F 30 in West 3.1 mph 8.3 mph 73% 0 in
20:20 68.9 °F 60.3 °F 30 in West 1.6 mph 8.3 mph 74% 0 in
20:25 68.5 °F 60.3 °F 30 in West 2.2 mph 6.9 mph 75% 0 in
20:30 68.4 °F 60.4 °F 30 in West 3.8 mph 6.9 mph 76% 0 in
20:35 68.2 °F 60.6 °F 30 in West 2.2 mph 6 mph 77% 0 in
20:40 68 °F 61 °F 30 in West 2.2 mph 6 mph 78% 0 in
20:45 67.8 °F 61.2 °F 30 in West 2.2 mph 4.5 mph 79% 0 in
20:50 67.6 °F 61.3 °F 30 in West 1.6 mph 4.5 mph 80% 0 in
20:55 67.5 °F 61.2 °F 30 in West 2.2 mph 4.5 mph 80% 0 in
21:00 67.3 °F 61 °F 30 in West 2.2 mph 4.5 mph 80% 0 in
21:05 67.1 °F 61.2 °F 30 in West 1.6 mph 4.5 mph 81% 0 in
21:10 67.1 °F 61.2 °F 30 in West 1.6 mph 4.5 mph 81% 0 in
21:15 67.1 °F 61.2 °F 30 in Calm   3.1 mph 81% 0 in
21:20 66.9 °F 61 °F 30 in WSW 0.7 mph 3.1 mph 81% 0 in
21:25 66.7 °F 60.6 °F 30 in WSW 2.2 mph 3.1 mph 81% 0 in
21:30 66.6 °F 61 °F 30 in West 0.7 mph 3.1 mph 82% 0 in
21:35 66.6 °F 61 °F 30 in NW 3.8 mph 6 mph 82% 0 in
21:40 66.6 °F 61.3 °F 30 in WNW 0.7 mph 6 mph 83% 0 in
21:45 66.6 °F 61.3 °F 30 in Calm   6 mph 83% 0 in
21:50 66.6 °F 61.3 °F 30 in West 1.6 mph 3.1 mph 83% 0 in
21:55 66.4 °F 61.2 °F 30 in West 0.7 mph 2.2 mph 83% 0 in
22:00 66.4 °F 61.2 °F 30 in Calm   2.2 mph 83% 0 in
22:05 66.2 °F 61 °F 30 in Calm   2.2 mph 83% 0 in
22:11 66 °F 61.3 °F 30 in Calm   2.2 mph 85% 0 in
22:16 65.8 °F 61.2 °F 30 in Calm     85% 0 in
22:21 65.7 °F 61.2 °F 30 in WNW 0.7 mph 2.2 mph 85% 0 in
22:26 65.7 °F 61.2 °F 30 in West 0.7 mph 2.2 mph 85% 0 in
22:31 65.5 °F 61.2 °F 30 in Calm   2.2 mph 86% 0 in
22:36 65.3 °F 61 °F 30 in Calm   1.6 mph 86% 0 in
22:41 65.1 °F 60.8 °F 30 in Calm   1.6 mph 86% 0 in
22:46 64.9 °F 61 °F 30 in Calm   0.7 mph 87% 0 in
22:51 64.8 °F 60.8 °F 30 in Calm     87% 0 in
22:56 64.8 °F 60.8 °F 30 in Calm   0.7 mph 87% 0 in
23:01 64.6 °F 61 °F 30 in Calm   0.7 mph 88% 0 in
23:06 64.2 °F 60.3 °F 30 in Calm   0.7 mph 87% 0 in
23:12 64 °F 60.4 °F 30 in Calm   0.7 mph 88% 0 in
23:17 63.9 °F 60.3 °F 30 in Calm   1.6 mph 88% 0 in
23:22 63.9 °F 60.3 °F 30 in Calm   1.6 mph 88% 0 in
23:27 63.9 °F 60.3 °F 30 in Calm   0.7 mph 88% 0 in
23:32 63.7 °F 60.1 °F 30 in Calm   1.6 mph 88% 0 in
23:37 64 °F 60.8 °F 30 in Calm   1.6 mph 89% 0 in
23:42 64.2 °F 61 °F 30 in Calm   0.7 mph 89% 0 in
23:47 64.2 °F 61 °F 30 in Calm     89% 0 in
23:52 64.2 °F 61 °F 30 in Calm     89% 0 in
23:57 64.2 °F 61 °F 30 in Calm     89% 0 in
Waitara, Taranaki. New Zealand Historic Data
Compliments of Weather Underground - 4 mb